sensor_id;sensor_type;location;lat;lon;timestamp;pressure;altitude;pressure_sealevel;temperature
78859;BMP280;68210;52.032;4.634;2023-04-24T00:00:20;99805.47;;;11.01
78859;BMP280;68210;52.032;4.634;2023-04-24T00:02:21;99799.66;;;11.03
78859;BMP280;68210;52.032;4.634;2023-04-24T00:04:22;99798.47;;;11.00
78859;BMP280;68210;52.032;4.634;2023-04-24T00:06:26;99799.97;;;10.94
78859;BMP280;68210;52.032;4.634;2023-04-24T00:08:33;99795.72;;;10.93
78859;BMP280;68210;52.032;4.634;2023-04-24T00:10:33;99806.56;;;10.93
78859;BMP280;68210;52.032;4.634;2023-04-24T00:12:34;99805.75;;;10.90
78859;BMP280;68210;52.032;4.634;2023-04-24T00:14:35;99803.00;;;10.86
78859;BMP280;68210;52.032;4.634;2023-04-24T00:16:35;99801.06;;;10.87
78859;BMP280;68210;52.032;4.634;2023-04-24T00:18:35;99801.06;;;10.83
78859;BMP280;68210;52.032;4.634;2023-04-24T00:20:36;99804.59;;;10.91
78859;BMP280;68210;52.032;4.634;2023-04-24T00:22:36;99812.75;;;10.94
78859;BMP280;68210;52.032;4.634;2023-04-24T00:24:37;99811.19;;;10.93
78859;BMP280;68210;52.032;4.634;2023-04-24T00:26:37;99812.75;;;10.94
78859;BMP280;68210;52.032;4.634;2023-04-24T00:28:37;99818.53;;;10.92
78859;BMP280;68210;52.032;4.634;2023-04-24T00:30:38;99816.66;;;10.96
78859;BMP280;68210;52.032;4.634;2023-04-24T00:32:38;99809.66;;;10.95
78859;BMP280;68210;52.032;4.634;2023-04-24T00:34:39;99807.34;;;10.97
78859;BMP280;68210;52.032;4.634;2023-04-24T00:36:39;99802.34;;;10.99
78859;BMP280;68210;52.032;4.634;2023-04-24T00:38:40;99802.00;;;11.04
78859;BMP280;68210;52.032;4.634;2023-04-24T00:40:40;99803.13;;;11.03
78859;BMP280;68210;52.032;4.634;2023-04-24T00:42:41;99799.63;;;10.99
78859;BMP280;68210;52.032;4.634;2023-04-24T00:44:43;99814.31;;;10.98
78859;BMP280;68210;52.032;4.634;2023-04-24T00:46:43;99804.31;;;11.02
78859;BMP280;68210;52.032;4.634;2023-04-24T00:48:44;99802.03;;;11.11
78859;BMP280;68210;52.032;4.634;2023-04-24T00:50:45;99809.03;;;11.12
78859;BMP280;68210;52.032;4.634;2023-04-24T00:52:45;99811.28;;;11.03
78859;BMP280;68210;52.032;4.634;2023-04-24T00:54:46;99800.78;;;10.98
78859;BMP280;68210;52.032;4.634;2023-04-24T00:56:47;99807.34;;;10.97
78859;BMP280;68210;52.032;4.634;2023-04-24T00:58:47;99810.06;;;10.97
78859;BMP280;68210;52.032;4.634;2023-04-24T01:00:48;99810.94;;;11.08
78859;BMP280;68210;52.032;4.634;2023-04-24T01:02:53;99809.38;;;11.07
78859;BMP280;68210;52.032;4.634;2023-04-24T01:04:53;99809.03;;;11.12
78859;BMP280;68210;52.032;4.634;2023-04-24T01:06:54;99809.38;;;11.07
78859;BMP280;68210;52.032;4.634;2023-04-24T01:08:56;99816.69;;;11.03
78859;BMP280;68210;52.032;4.634;2023-04-24T01:10:57;99814.41;;;11.05
78859;BMP280;68210;52.032;4.634;2023-04-24T01:12:58;99814.47;;;11.12
78859;BMP280;68210;52.032;4.634;2023-04-24T01:14:59;99804.72;;;11.04
78859;BMP280;68210;52.032;4.634;2023-04-24T01:16:59;99807.44;;;11.08
78859;BMP280;68210;52.032;4.634;2023-04-24T01:19:00;99802.00;;;11.04
78859;BMP280;68210;52.032;4.634;2023-04-24T01:21:03;99810.88;;;11.01
78859;BMP280;68210;52.032;4.634;2023-04-24T01:23:04;99812.81;;;11.01
78859;BMP280;68210;52.032;4.634;2023-04-24T01:25:04;99803.47;;;10.98
78859;BMP280;68210;52.032;4.634;2023-04-24T01:27:06;99809.72;;;11.02
78859;BMP280;68210;52.032;4.634;2023-04-24T01:29:07;99806.25;;;11.05
78859;BMP280;68210;52.032;4.634;2023-04-24T01:31:09;99814.38;;;11.02
78859;BMP280;68210;52.032;4.634;2023-04-24T01:33:09;99812.03;;;11.00
78859;BMP280;68210;52.032;4.634;2023-04-24T01:35:10;99816.69;;;11.03
78859;BMP280;68210;52.032;4.634;2023-04-24T01:37:11;99808.91;;;10.98
78859;BMP280;68210;52.032;4.634;2023-04-24T01:39:11;99811.59;;;10.95
78859;BMP280;68210;52.032;4.634;2023-04-24T01:41:12;99802.69;;;10.94
78859;BMP280;68210;52.032;4.634;2023-04-24T01:43:13;99812.00;;;10.97
78859;BMP280;68210;52.032;4.634;2023-04-24T01:45:13;99814.69;;;10.93
78859;BMP280;68210;52.032;4.634;2023-04-24T01:47:17;99807.69;;;10.89
78859;BMP280;68210;52.032;4.634;2023-04-24T01:49:17;99810.38;;;10.86
78859;BMP280;68210;52.032;4.634;2023-04-24T01:51:18;99812.34;;;10.92
78859;BMP280;68210;52.032;4.634;2023-04-24T01:53:18;99811.56;;;10.92
78859;BMP280;68210;52.032;4.634;2023-04-24T01:55:19;99810.03;;;10.91
78859;BMP280;68210;52.032;4.634;2023-04-24T01:57:19;99813.50;;;10.91
78859;BMP280;68210;52.032;4.634;2023-04-24T01:59:20;99802.69;;;10.94
78859;BMP280;68210;52.032;4.634;2023-04-24T02:01:23;99807.69;;;10.92
78859;BMP280;68210;52.032;4.634;2023-04-24T02:03:25;99808.78;;;10.85
78859;BMP280;68210;52.032;4.634;2023-04-24T02:05:26;99809.53;;;10.82
78859;BMP280;68210;52.032;4.634;2023-04-24T02:07:26;99809.13;;;10.80
78859;BMP280;68210;52.032;4.634;2023-04-24T02:09:26;99802.16;;;10.79
78859;BMP280;68210;52.032;4.634;2023-04-24T02:11:27;99804.91;;;10.82
78859;BMP280;68210;52.032;4.634;2023-04-24T02:13:28;99812.66;;;10.80
78859;BMP280;68210;52.032;4.634;2023-04-24T02:15:28;99804.09;;;10.78
78859;BMP280;68210;52.032;4.634;2023-04-24T02:17:28;99807.59;;;10.79
78859;BMP280;68210;52.032;4.634;2023-04-24T02:19:29;99804.88;;;10.79
78859;BMP280;68210;52.032;4.634;2023-04-24T02:21:29;99814.94;;;10.78
78859;BMP280;68210;52.032;4.634;2023-04-24T02:23:31;99806.81;;;10.78
78859;BMP280;68210;52.032;4.634;2023-04-24T02:25:31;99808.75;;;10.78
78859;BMP280;68210;52.032;4.634;2023-04-24T02:27:31;99816.50;;;10.79
78859;BMP280;68210;52.032;4.634;2023-04-24T02:29:32;99809.59;;;10.85
78859;BMP280;68210;52.032;4.634;2023-04-24T02:31:32;99802.59;;;10.84
78859;BMP280;68210;52.032;4.634;2023-04-24T02:33:34;99813.41;;;10.81
78859;BMP280;68210;52.032;4.634;2023-04-24T02:35:35;99804.13;;;10.82
78859;BMP280;68210;52.032;4.634;2023-04-24T02:37:36;99804.91;;;10.82
78859;BMP280;68210;52.032;4.634;2023-04-24T02:39:36;99803.38;;;10.85
78859;BMP280;68210;52.032;4.634;2023-04-24T02:41:36;99803.38;;;10.85
78859;BMP280;68210;52.032;4.634;2023-04-24T02:43:37;99803.75;;;10.83
78859;BMP280;68210;52.032;4.634;2023-04-24T02:45:37;99811.81;;;10.76
78859;BMP280;68210;52.032;4.634;2023-04-24T02:47:38;99803.31;;;10.78
78859;BMP280;68210;52.032;4.634;2023-04-24T02:49:38;99801.00;;;10.80
78859;BMP280;68210;52.032;4.634;2023-04-24T02:51:39;99794.03;;;10.79
78859;BMP280;68210;52.032;4.634;2023-04-24T02:53:41;99797.56;;;10.83
78859;BMP280;68210;52.032;4.634;2023-04-24T02:55:41;99792.16;;;10.83
78859;BMP280;68210;52.032;4.634;2023-04-24T02:57:42;99792.91;;;10.83
78859;BMP280;68210;52.032;4.634;2023-04-24T02:59:42;99794.06;;;10.82
78859;BMP280;68210;52.032;4.634;2023-04-24T03:01:43;99786.66;;;10.76
78859;BMP280;68210;52.032;4.634;2023-04-24T03:03:44;99789.34;;;10.76
78859;BMP280;68210;52.032;4.634;2023-04-24T03:05:44;99783.53;;;10.74
78859;BMP280;68210;52.032;4.634;2023-04-24T03:07:44;99790.16;;;10.80
78859;BMP280;68210;52.032;4.634;2023-04-24T03:09:45;99789.91;;;10.52
78859;BMP280;68210;52.032;4.634;2023-04-24T03:11:46;99799.03;;;10.73
78859;BMP280;68210;52.032;4.634;2023-04-24T03:13:46;99801.69;;;10.70
78859;BMP280;68210;52.032;4.634;2023-04-24T03:15:47;99804.81;;;10.72
78859;BMP280;68210;52.032;4.634;2023-04-24T03:17:47;99807.09;;;10.66
78859;BMP280;68210;52.032;4.634;2023-04-24T03:19:48;99803.13;;;10.57
78859;BMP280;68210;52.032;4.634;2023-04-24T03:21:49;99806.19;;;10.56
78859;BMP280;68210;52.032;4.634;2023-04-24T03:23:49;99798.47;;;10.54
78859;BMP280;68210;52.032;4.634;2023-04-24T03:25:49;99808.44;;;10.47
78859;BMP280;68210;52.032;4.634;2023-04-24T03:27:50;99796.81;;;10.43
78859;BMP280;68210;52.032;4.634;2023-04-24T03:29:50;99806.88;;;10.42
78859;BMP280;68210;52.032;4.634;2023-04-24T03:31:55;99809.97;;;10.44
78859;BMP280;68210;52.032;4.634;2023-04-24T03:33:55;99814.63;;;10.47
78859;BMP280;68210;52.032;4.634;2023-04-24T03:35:56;99813.09;;;10.46
78859;BMP280;68210;52.032;4.634;2023-04-24T03:37:56;99813.88;;;10.50
78859;BMP280;68210;52.032;4.634;2023-04-24T03:39:56;99810.03;;;10.51
78859;BMP280;68210;52.032;4.634;2023-04-24T03:41:57;99813.16;;;10.53
78859;BMP280;68210;52.032;4.634;2023-04-24T03:43:57;99825.41;;;10.40
78859;BMP280;68210;52.032;4.634;2023-04-24T03:45:58;99820.84;;;10.48
78859;BMP280;68210;52.032;4.634;2023-04-24T03:47:59;99822.00;;;10.50
78859;BMP280;68210;52.032;4.634;2023-04-24T03:50:00;99819.31;;;10.50
78859;BMP280;68210;52.032;4.634;2023-04-24T03:52:00;99815.88;;;10.53
78859;BMP280;68210;52.032;4.634;2023-04-24T03:54:01;99819.31;;;10.50
78859;BMP280;68210;52.032;4.634;2023-04-24T03:56:01;99825.56;;;10.54
78859;BMP280;68210;52.032;4.634;2023-04-24T03:58:01;99820.41;;;10.42
78859;BMP280;68210;52.032;4.634;2023-04-24T04:00:02;99818.84;;;10.41
78859;BMP280;68210;52.032;4.634;2023-04-24T04:02:04;99817.34;;;10.47
78859;BMP280;68210;52.032;4.634;2023-04-24T04:04:05;99828.63;;;10.53
78859;BMP280;68210;52.032;4.634;2023-04-24T04:06:06;99823.19;;;10.49
78859;BMP280;68210;52.032;4.634;2023-04-24T04:08:06;99830.88;;;10.47
78859;BMP280;68210;52.032;4.634;2023-04-24T04:10:07;99828.59;;;10.49
78859;BMP280;68210;52.032;4.634;2023-04-24T04:12:07;99832.06;;;10.50
78859;BMP280;68210;52.032;4.634;2023-04-24T04:14:08;99828.69;;;10.60
78859;BMP280;68210;52.032;4.634;2023-04-24T04:16:08;99835.00;;;10.70
78859;BMP280;68210;52.032;4.634;2023-04-24T04:18:09;99836.38;;;10.54
78859;BMP280;68210;52.032;4.634;2023-04-24T04:20:10;99843.63;;;10.43
78859;BMP280;68210;52.032;4.634;2023-04-24T04:22:10;99845.50;;;10.39
78859;BMP280;68210;52.032;4.634;2023-04-24T04:24:11;99837.75;;;10.34
78859;BMP280;68210;52.032;4.634;2023-04-24T04:26:12;99857.09;;;10.36
78859;BMP280;68210;52.032;4.634;2023-04-24T04:28:15;99854.78;;;10.38
78859;BMP280;68210;52.032;4.634;2023-04-24T04:30:15;99867.53;;;10.34
78859;BMP280;68210;52.032;4.634;2023-04-24T04:32:16;99868.00;;;10.43
78859;BMP280;68210;52.032;4.634;2023-04-24T04:34:16;99863.75;;;10.42
78859;BMP280;68210;52.032;4.634;2023-04-24T04:36:17;99875.56;;;10.28
78859;BMP280;68210;52.032;4.634;2023-04-24T04:38:20;99878.63;;;10.26
78859;BMP280;68210;52.032;4.634;2023-04-24T04:40:20;99878.75;;;10.36
78859;BMP280;68210;52.032;4.634;2023-04-24T04:42:21;99882.63;;;10.35
78859;BMP280;68210;52.032;4.634;2023-04-24T04:44:22;99887.63;;;10.33
78859;BMP280;68210;52.032;4.634;2023-04-24T04:46:23;99890.34;;;10.33
78859;BMP280;68210;52.032;4.634;2023-04-24T04:48:27;99891.19;;;10.41
78859;BMP280;68210;52.032;4.634;2023-04-24T04:50:27;99895.13;;;10.47
78859;BMP280;68210;52.032;4.634;2023-04-24T04:52:28;99894.25;;;10.36
78859;BMP280;68210;52.032;4.634;2023-04-24T04:54:28;99895.34;;;10.31
78859;BMP280;68210;52.032;4.634;2023-04-24T04:56:28;99895.31;;;10.28
78859;BMP280;68210;52.032;4.634;2023-04-24T04:58:29;99897.97;;;10.25
78859;BMP280;68210;52.032;4.634;2023-04-24T05:00:29;99913.97;;;10.36
78859;BMP280;68210;52.032;4.634;2023-04-24T05:02:35;99906.69;;;10.11
78859;BMP280;68210;52.032;4.634;2023-04-24T05:04:35;99904.69;;;10.05
78859;BMP280;68210;52.032;4.634;2023-04-24T05:06:36;99904.31;;;10.06
78859;BMP280;68210;52.032;4.634;2023-04-24T05:08:36;99928.34;;;9.86
78859;BMP280;68210;52.032;4.634;2023-04-24T05:10:37;99942.50;;;9.98
78859;BMP280;68210;52.032;4.634;2023-04-24T05:12:37;99933.28;;;10.02
78859;BMP280;68210;52.032;4.634;2023-04-24T05:14:37;99948.25;;;9.97
78859;BMP280;68210;52.032;4.634;2023-04-24T05:16:39;99946.63;;;9.89
78859;BMP280;68210;52.032;4.634;2023-04-24T05:18:40;99962.47;;;9.90
78859;BMP280;68210;52.032;4.634;2023-04-24T05:20:40;99966.75;;;9.91
78859;BMP280;68210;52.032;4.634;2023-04-24T05:22:41;99977.75;;;9.79
78859;BMP280;68210;52.032;4.634;2023-04-24T05:24:41;99982.34;;;9.75
78859;BMP280;68210;52.032;4.634;2023-04-24T05:26:42;99984.63;;;9.73
78859;BMP280;68210;52.032;4.634;2023-04-24T05:28:42;99993.78;;;9.66
78859;BMP280;68210;52.032;4.634;2023-04-24T05:30:43;99993.78;;;9.66
78859;BMP280;68210;52.032;4.634;2023-04-24T05:32:43;100003.81;;;9.65
78859;BMP280;68210;52.032;4.634;2023-04-24T05:34:43;100019.03;;;9.51
78859;BMP280;68210;52.032;4.634;2023-04-24T05:36:45;100015.84;;;9.45
78859;BMP280;68210;52.032;4.634;2023-04-24T05:38:46;100031.28;;;9.45
78859;BMP280;68210;52.032;4.634;2023-04-24T05:40:46;100026.00;;;9.52
78859;BMP280;68210;52.032;4.634;2023-04-24T05:42:47;100041.56;;;9.58
78859;BMP280;68210;52.032;4.634;2023-04-24T05:44:47;100046.78;;;9.48
78859;BMP280;68210;52.032;4.634;2023-04-24T05:46:47;100058.53;;;9.55
78859;BMP280;68210;52.032;4.634;2023-04-24T05:48:48;100053.38;;;9.47
78859;BMP280;68210;52.032;4.634;2023-04-24T05:50:48;100059.44;;;9.40
78859;BMP280;68210;52.032;4.634;2023-04-24T05:52:49;100062.19;;;9.44
78859;BMP280;68210;52.032;4.634;2023-04-24T05:54:49;100077.66;;;9.43
78859;BMP280;68210;52.032;4.634;2023-04-24T05:56:49;100074.47;;;9.38
78859;BMP280;68210;52.032;4.634;2023-04-24T05:58:50;100093.03;;;9.39
78859;BMP280;68210;52.032;4.634;2023-04-24T06:00:51;100084.47;;;9.38
78859;BMP280;68210;52.032;4.634;2023-04-24T06:02:52;100093.50;;;9.45
78859;BMP280;68210;52.032;4.634;2023-04-24T06:04:52;100107.75;;;9.42
78859;BMP280;68210;52.032;4.634;2023-04-24T06:06:53;100107.94;;;9.52
78859;BMP280;68210;52.032;4.634;2023-04-24T06:08:57;100118.72;;;9.49
78859;BMP280;68210;52.032;4.634;2023-04-24T06:10:59;100122.75;;;9.58
78859;BMP280;68210;52.032;4.634;2023-04-24T06:12:59;100115.78;;;9.57
78859;BMP280;68210;52.032;4.634;2023-04-24T06:15:00;100127.06;;;9.40
78859;BMP280;68210;52.032;4.634;2023-04-24T06:17:01;100131.16;;;9.53
78859;BMP280;68210;52.032;4.634;2023-04-24T06:19:01;100143.47;;;9.51
78859;BMP280;68210;52.032;4.634;2023-04-24T06:21:01;100147.19;;;9.43
78859;BMP280;68210;52.032;4.634;2023-04-24T06:23:02;100154.28;;;9.51
78859;BMP280;68210;52.032;4.634;2023-04-24T06:25:03;100139.63;;;9.52
78859;BMP280;68210;52.032;4.634;2023-04-24T06:27:03;100161.84;;;9.42
78859;BMP280;68210;52.032;4.634;2023-04-24T06:29:03;100165.28;;;9.20
78859;BMP280;68210;52.032;4.634;2023-04-24T06:31:04;100178.78;;;9.39
78859;BMP280;68210;52.032;4.634;2023-04-24T06:33:04;100170.03;;;9.27
78859;BMP280;68210;52.032;4.634;2023-04-24T06:35:05;100183.22;;;9.47
78859;BMP280;68210;52.032;4.634;2023-04-24T06:37:07;100193.31;;;9.50
78859;BMP280;68210;52.032;4.634;2023-04-24T06:39:07;100185.53;;;9.48
78859;BMP280;68210;52.032;4.634;2023-04-24T06:41:09;100203.78;;;9.51
78859;BMP280;68210;52.032;4.634;2023-04-24T06:43:10;100208.41;;;9.51
78859;BMP280;68210;52.032;4.634;2023-04-24T06:45:11;100213.81;;;9.51
78859;BMP280;68210;52.032;4.634;2023-04-24T06:47:11;100216.03;;;9.45
78859;BMP280;68210;52.032;4.634;2023-04-24T06:49:13;100233.19;;;9.53
78859;BMP280;68210;52.032;4.634;2023-04-24T06:51:16;100226.84;;;9.64
78859;BMP280;68210;52.032;4.634;2023-04-24T06:53:18;100229.69;;;9.71
78859;BMP280;68210;52.032;4.634;2023-04-24T06:55:18;100228.34;;;9.62
78859;BMP280;68210;52.032;4.634;2023-04-24T06:57:19;100234.91;;;9.61
78859;BMP280;68210;52.032;4.634;2023-04-24T06:59:19;100237.03;;;9.52
78859;BMP280;68210;52.032;4.634;2023-04-24T07:01:20;100235.75;;;9.65
78859;BMP280;68210;52.032;4.634;2023-04-24T07:03:20;100255.69;;;9.57
78859;BMP280;68210;52.032;4.634;2023-04-24T07:05:21;100255.59;;;9.53
78859;BMP280;68210;52.032;4.634;2023-04-24T07:07:21;100249.69;;;9.48
78859;BMP280;68210;52.032;4.634;2023-04-24T07:09:25;100261.66;;;9.47
78859;BMP280;68210;52.032;4.634;2023-04-24T07:11:25;100262.50;;;9.51
78859;BMP280;68210;52.032;4.634;2023-04-24T07:13:29;100262.50;;;9.51
78859;BMP280;68210;52.032;4.634;2023-04-24T07:15:30;100276.69;;;9.44
78859;BMP280;68210;52.032;4.634;2023-04-24T07:17:30;100277.13;;;9.12
78859;BMP280;68210;52.032;4.634;2023-04-24T07:19:31;100288.19;;;9.23
78859;BMP280;68210;52.032;4.634;2023-04-24T07:21:31;100292.88;;;9.26
78859;BMP280;68210;52.032;4.634;2023-04-24T07:23:32;100300.16;;;9.22
78859;BMP280;68210;52.032;4.634;2023-04-24T07:25:32;100294.34;;;9.39
78859;BMP280;68210;52.032;4.634;2023-04-24T07:27:34;100307.78;;;9.35
78859;BMP280;68210;52.032;4.634;2023-04-24T07:29:34;100309.22;;;9.48
78859;BMP280;68210;52.032;4.634;2023-04-24T07:31:35;100324.34;;;9.49
78859;BMP280;68210;52.032;4.634;2023-04-24T07:33:36;100311.38;;;9.58
78859;BMP280;68210;52.032;4.634;2023-04-24T07:35:36;100324.63;;;9.63
78859;BMP280;68210;52.032;4.634;2023-04-24T07:37:37;100327.34;;;9.63
78859;BMP280;68210;52.032;4.634;2023-04-24T07:39:37;100317.97;;;9.75
78859;BMP280;68210;52.032;4.634;2023-04-24T07:41:37;100335.81;;;9.80
78859;BMP280;68210;52.032;4.634;2023-04-24T07:43:38;100333.25;;;9.68
78859;BMP280;68210;52.032;4.634;2023-04-24T07:45:39;100348.13;;;9.77
78859;BMP280;68210;52.032;4.634;2023-04-24T07:47:43;100340.50;;;9.83
78859;BMP280;68210;52.032;4.634;2023-04-24T07:49:45;100338.63;;;9.83
78859;BMP280;68210;52.032;4.634;2023-04-24T07:51:45;100340.78;;;9.93
78859;BMP280;68210;52.032;4.634;2023-04-24T07:53:46;100342.34;;;9.94
78859;BMP280;68210;52.032;4.634;2023-04-24T07:55:46;100339.03;;;9.85
78859;BMP280;68210;52.032;4.634;2023-04-24T07:57:47;100346.91;;;9.90
78859;BMP280;68210;52.032;4.634;2023-04-24T07:59:47;100367.69;;;9.86
78859;BMP280;68210;52.032;4.634;2023-04-24T08:01:47;100374.09;;;9.78
78859;BMP280;68210;52.032;4.634;2023-04-24T08:03:48;100375.81;;;9.86
78859;BMP280;68210;52.032;4.634;2023-04-24T08:05:48;100362.09;;;9.79
78859;BMP280;68210;52.032;4.634;2023-04-24T08:07:51;100385.03;;;9.85
78859;BMP280;68210;52.032;4.634;2023-04-24T08:09:51;100381.25;;;9.71
78859;BMP280;68210;52.032;4.634;2023-04-24T08:11:51;100395.63;;;9.75
78859;BMP280;68210;52.032;4.634;2023-04-24T08:13:53;100387.19;;;9.76
78859;BMP280;68210;52.032;4.634;2023-04-24T08:15:56;100383.69;;;9.76
78859;BMP280;68210;52.032;4.634;2023-04-24T08:17:57;100393.38;;;9.77
78859;BMP280;68210;52.032;4.634;2023-04-24T08:19:57;100392.38;;;9.85
78859;BMP280;68210;52.032;4.634;2023-04-24T08:22:01;100401.66;;;9.84
78859;BMP280;68210;52.032;4.634;2023-04-24T08:24:02;100411.44;;;9.88
78859;BMP280;68210;52.032;4.634;2023-04-24T08:26:05;100412.03;;;9.97
78859;BMP280;68210;52.032;4.634;2023-04-24T08:28:08;100409.75;;;9.99
78859;BMP280;68210;52.032;4.634;2023-04-24T08:30:09;100415.47;;;9.94
78859;BMP280;68210;52.032;4.634;2023-04-24T08:32:11;100427.13;;;9.98
78859;BMP280;68210;52.032;4.634;2023-04-24T08:34:11;100422.88;;;9.97
78859;BMP280;68210;52.032;4.634;2023-04-24T08:36:12;100429.13;;;10.01
78859;BMP280;68210;52.032;4.634;2023-04-24T08:38:12;100434.56;;;10.01
78859;BMP280;68210;52.032;4.634;2023-04-24T08:40:14;100435.63;;;10.15
78859;BMP280;68210;52.032;4.634;2023-04-24T08:42:15;100445.91;;;10.25
78859;BMP280;68210;52.032;4.634;2023-04-24T08:44:17;100440.56;;;10.29
78859;BMP280;68210;52.032;4.634;2023-04-24T08:46:20;100444.41;;;10.28
78859;BMP280;68210;52.032;4.634;2023-04-24T08:48:22;100429.59;;;10.22
78859;BMP280;68210;52.032;4.634;2023-04-24T08:50:22;100445.56;;;10.27
78859;BMP280;68210;52.032;4.634;2023-04-24T08:52:23;100458.41;;;10.30
78859;BMP280;68210;52.032;4.634;2023-04-24T08:54:25;100454.59;;;10.15
78859;BMP280;68210;52.032;4.634;2023-04-24T08:56:26;100448.97;;;10.05
78859;BMP280;68210;52.032;4.634;2023-04-24T08:58:28;100457.38;;;10.00
78859;BMP280;68210;52.032;4.634;2023-04-24T09:00:29;100458.72;;;10.09
78859;BMP280;68210;52.032;4.634;2023-04-24T09:02:30;100451.69;;;10.05
78859;BMP280;68210;52.032;4.634;2023-04-24T09:04:33;100463.63;;;10.04
78859;BMP280;68210;52.032;4.634;2023-04-24T09:06:34;100468.34;;;10.07
78859;BMP280;68210;52.032;4.634;2023-04-24T09:08:35;100466.22;;;10.16
78859;BMP280;68210;52.032;4.634;2023-04-24T09:10:36;100458.25;;;10.23
78859;BMP280;68210;52.032;4.634;2023-04-24T09:12:36;100474.66;;;9.96
78859;BMP280;68210;52.032;4.634;2023-04-24T09:14:38;100470.34;;;10.10
78859;BMP280;68210;52.032;4.634;2023-04-24T09:16:42;100467.25;;;10.27
78859;BMP280;68210;52.032;4.634;2023-04-24T09:18:43;100474.44;;;10.19
78859;BMP280;68210;52.032;4.634;2023-04-24T09:21:03;100480.13;;;10.14
78859;BMP280;68210;52.032;4.634;2023-04-24T09:23:04;100496.81;;;9.86
78859;BMP280;68210;52.032;4.634;2023-04-24T09:25:08;100499.19;;;9.87
78859;BMP280;68210;52.032;4.634;2023-04-24T09:27:11;100499.91;;;9.84
78859;BMP280;68210;52.032;4.634;2023-04-24T09:29:18;100496.25;;;9.92
78859;BMP280;68210;52.032;4.634;2023-04-24T09:31:19;100506.81;;;9.97
78859;BMP280;68210;52.032;4.634;2023-04-24T09:33:21;100499.41;;;9.94
78859;BMP280;68210;52.032;4.634;2023-04-24T09:35:22;100511.16;;;10.01
78859;BMP280;68210;52.032;4.634;2023-04-24T09:37:29;100504.41;;;10.11
78859;BMP280;68210;52.032;4.634;2023-04-24T09:39:29;100505.44;;;10.22
78859;BMP280;68210;52.032;4.634;2023-04-24T09:41:31;100509.66;;;10.19
78859;BMP280;68210;52.032;4.634;2023-04-24T09:43:33;100509.44;;;10.28
78859;BMP280;68210;52.032;4.634;2023-04-24T09:45:38;100510.81;;;10.37
78859;BMP280;68210;52.032;4.634;2023-04-24T09:47:40;100516.16;;;10.52
78859;BMP280;68210;52.032;4.634;2023-04-24T09:49:41;100522.59;;;10.82
78859;BMP280;68210;52.032;4.634;2023-04-24T09:51:43;100515.03;;;10.91
78859;BMP280;68210;52.032;4.634;2023-04-24T09:53:47;100516.16;;;10.90
78859;BMP280;68210;52.032;4.634;2023-04-24T09:55:53;100509.19;;;10.89
78859;BMP280;68210;52.032;4.634;2023-04-24T09:57:55;100526.78;;;10.79
78859;BMP280;68210;52.032;4.634;2023-04-24T09:59:57;100534.94;;;10.61
78859;BMP280;68210;52.032;4.634;2023-04-24T10:01:59;100537.72;;;10.64
78859;BMP280;68210;52.032;4.634;2023-04-24T10:04:02;100535.75;;;10.61
78859;BMP280;68210;52.032;4.634;2023-04-24T10:06:03;100544.94;;;10.57
78859;BMP280;68210;52.032;4.634;2023-04-24T10:08:11;100557.69;;;10.56
78859;BMP280;68210;52.032;4.634;2023-04-24T10:10:12;100552.56;;;10.51
78859;BMP280;68210;52.032;4.634;2023-04-24T10:12:12;100556.78;;;10.33
78859;BMP280;68210;52.032;4.634;2023-04-24T10:14:17;100556.50;;;10.04
78859;BMP280;68210;52.032;4.634;2023-04-24T10:16:20;100564.16;;;9.87
78859;BMP280;68210;52.032;4.634;2023-04-24T10:18:21;100572.56;;;9.82
78859;BMP280;68210;52.032;4.634;2023-04-24T10:20:24;100563.13;;;9.76
78859;BMP280;68210;52.032;4.634;2023-04-24T10:22:24;100566.66;;;9.92
78859;BMP280;68210;52.032;4.634;2023-04-24T10:24:25;100558.69;;;9.99
78859;BMP280;68210;52.032;4.634;2023-04-24T10:26:27;100568.97;;;10.24
78859;BMP280;68210;52.032;4.634;2023-04-24T10:28:29;100563.44;;;10.21
78859;BMP280;68210;52.032;4.634;2023-04-24T10:30:33;100566.53;;;10.04
78859;BMP280;68210;52.032;4.634;2023-04-24T10:32:35;100560.88;;;9.94
78859;BMP280;68210;52.032;4.634;2023-04-24T10:34:35;100565.31;;;10.17
78859;BMP280;68210;52.032;4.634;2023-04-24T10:36:43;100566.13;;;10.36
78859;BMP280;68210;52.032;4.634;2023-04-24T10:38:46;100564.22;;;10.55
78859;BMP280;68210;52.032;4.634;2023-04-24T10:40:47;100562.91;;;10.64
78859;BMP280;68210;52.032;4.634;2023-04-24T10:42:48;100576.31;;;10.76
78859;BMP280;68210;52.032;4.634;2023-04-24T10:44:49;100571.47;;;11.04
78859;BMP280;68210;52.032;4.634;2023-04-24T10:46:53;100575.09;;;11.11
78859;BMP280;68210;52.032;4.634;2023-04-24T10:48:54;100574.97;;;11.23
78859;BMP280;68210;52.032;4.634;2023-04-24T10:50:55;100576.00;;;11.37
78859;BMP280;68210;52.032;4.634;2023-04-24T10:53:16;100581.38;;;11.34
78859;BMP280;68210;52.032;4.634;2023-04-24T10:55:44;100587.94;;;11.14
78859;BMP280;68210;52.032;4.634;2023-04-24T10:58:04;100597.69;;;10.96
78859;BMP280;68210;52.032;4.634;2023-04-24T11:00:14;100606.22;;;10.98
78859;BMP280;68210;52.032;4.634;2023-04-24T11:02:16;100604.59;;;10.94
78859;BMP280;68210;52.032;4.634;2023-04-24T11:04:32;100614.72;;;10.78
78859;BMP280;68210;52.032;4.634;2023-04-24T11:06:34;100620.09;;;10.60
78859;BMP280;68210;52.032;4.634;2023-04-24T11:12:58;100622.50;;;10.98
78859;BMP280;68210;52.032;4.634;2023-04-24T11:15:00;100618.09;;;11.09
78859;BMP280;68210;52.032;4.634;2023-04-24T11:17:00;100621.88;;;11.23
78859;BMP280;68210;52.032;4.634;2023-04-24T11:19:09;100605.22;;;11.44
78859;BMP280;68210;52.032;4.634;2023-04-24T11:21:11;100613.06;;;11.67
78859;BMP280;68210;52.032;4.634;2023-04-24T11:23:13;100612.66;;;11.87
78859;BMP280;68210;52.032;4.634;2023-04-24T11:25:15;100622.97;;;12.01
78859;BMP280;68210;52.032;4.634;2023-04-24T11:27:17;100616.19;;;12.13
78859;BMP280;68210;52.032;4.634;2023-04-24T11:29:20;100629.25;;;12.05
78859;BMP280;68210;52.032;4.634;2023-04-24T11:31:41;100633.91;;;12.30
78859;BMP280;68210;52.032;4.634;2023-04-24T11:33:48;100634.50;;;12.16
78859;BMP280;68210;52.032;4.634;2023-04-24T11:35:51;100630.16;;;12.38
78859;BMP280;68210;52.032;4.634;2023-04-24T11:37:52;100638.81;;;12.21
78859;BMP280;68210;52.032;4.634;2023-04-24T11:39:54;100634.91;;;12.18
78859;BMP280;68210;52.032;4.634;2023-04-24T11:42:02;100641.06;;;12.15